Map

Track Data

SID SEASON NUMBER BASIN SUBBASIN NAME ISO_TIME NATURE LAT LON WMO_WIND WMO_PRES WMO_AGENCY TRACK_TYPE DIST2LAND LANDFALL IFLAG USA_AGENCY USA_ATCF_ID USA_LAT USA_LON USA_RECORD USA_STATUS USA_WIND USA_PRES USA_SSHS USA_R34_NE USA_R34_SE USA_R34_SW USA_R34_NW USA_R50_NE USA_R50_SE USA_R50_SW USA_R50_NW USA_R64_NE USA_R64_SE USA_R64_SW USA_R64_NW USA_POCI USA_ROCI USA_RMW USA_EYE TOKYO_LAT TOKYO_LON TOKYO_GRADE TOKYO_WIND TOKYO_PRES TOKYO_R50_DIR TOKYO_R50_LONG TOKYO_R50_SHORT TOKYO_R30_DIR TOKYO_R30_LONG TOKYO_R30_SHORT TOKYO_LAND CMA_LAT CMA_LON CMA_CAT CMA_WIND CMA_PRES HKO_LAT HKO_LON HKO_CAT HKO_WIND HKO_PRES NEWDELHI_LAT NEWDELHI_LON NEWDELHI_GRADE NEWDELHI_WIND NEWDELHI_PRES NEWDELHI_CI NEWDELHI_DP NEWDELHI_POCI REUNION_LAT REUNION_LON REUNION_TYPE REUNION_WIND REUNION_PRES REUNION_TNUM REUNION_CI REUNION_RMW REUNION_R34_NE REUNION_R34_SE REUNION_R34_SW REUNION_R34_NW REUNION_R50_NE REUNION_R50_SE REUNION_R50_SW REUNION_R50_NW REUNION_R64_NE REUNION_R64_SE REUNION_R64_SW REUNION_R64_NW BOM_LAT BOM_LON BOM_TYPE BOM_WIND BOM_PRES BOM_TNUM BOM_CI BOM_RMW BOM_R34_NE BOM_R34_SE BOM_R34_SW BOM_R34_NW BOM_R50_NE BOM_R50_SE BOM_R50_SW BOM_R50_NW BOM_R64_NE BOM_R64_SE BOM_R64_SW BOM_R64_NW BOM_ROCI BOM_POCI BOM_EYE BOM_POS_METHOD BOM_PRES_METHOD NADI_LAT NADI_LON NADI_CAT NADI_WIND NADI_PRES WELLINGTON_LAT WELLINGTON_LON WELLINGTON_WIND WELLINGTON_PRES DS824_LAT DS824_LON DS824_STAGE DS824_WIND DS824_PRES TD9636_LAT TD9636_LON TD9636_STAGE TD9636_WIND TD9636_PRES TD9635_LAT TD9635_LON TD9635_WIND TD9635_PRES TD9635_ROCI NEUMANN_LAT NEUMANN_LON NEUMANN_CLASS NEUMANN_WIND NEUMANN_PRES MLC_LAT MLC_LON MLC_CLASS MLC_WIND MLC_PRES USA_GUST BOM_GUST BOM_GUST_PER REUNION_GUST REUNION_GUST_PER USA_SEAHGT USA_SEARAD_NE USA_SEARAD_SE USA_SEARAD_SW USA_SEARAD_NW STORM_SPEED STORM_DIR
1938232N22129 1938 39 WP MM NOT_NAMED 1938-08-20 10:00:00 NR 21.5000 128.500 main 734 725 __________O___ -1 21.5000 128.500 7 2 264
1938232N22129 1938 39 WP MM NOT_NAMED 1938-08-20 12:00:00 NR 21.4945 128.433 main 725 716 __________P___ -1 21.4945 128.433 7 2 266
1938232N22129 1938 39 WP MM NOT_NAMED 1938-08-20 15:00:00 NR 21.4883 128.321 main 716 707 __________P___ -1 21.4883 128.321 7 2 268
1938232N22129 1938 39 WP MM NOT_NAMED 1938-08-20 18:00:00 NR 21.4874 128.176 main 707 689 __________P___ -1 21.4874 128.176 7 3 271
1938232N22129 1938 39 WP MM NOT_NAMED 1938-08-20 21:00:00 NR 21.4950 127.980 main 689 680 __________P___ -1 21.4950 127.980 7 4 273
1938232N22129 1938 39 WP MM NOT_NAMED 1938-08-20 22:00:00 NR 21.5000 127.900 main 680 662 __________O___ -1 21.5000 127.900 7 5 274
1938232N22129 1938 39 WP MM NOT_NAMED 1938-08-21 00:00:00 NR 21.5137 127.715 main 662 635 __________P___ -1 21.5137 127.715 7 6 275
1938232N22129 1938 39 WP MM NOT_NAMED 1938-08-21 03:00:00 NR 21.5405 127.387 main 635 599 __________P___ -1 21.5405 127.387 7 7 275
1938232N22129 1938 39 WP MM NOT_NAMED 1938-08-21 06:00:00 NR 21.5693 127.018 main 599 560 __________P___ -1 21.5693 127.018 7 7 274
1938232N22129 1938 39 WP MM NOT_NAMED 1938-08-21 09:00:00 NR 21.5938 126.630 main 560 550 __________P___ -1 21.5938 126.630 7 7 274
1938232N22129 1938 39 WP MM NOT_NAMED 1938-08-21 10:00:00 NR 21.6000 126.500 main 550 530 __________O___ -1 21.6000 126.500 7 7 272
1938232N22129 1938 39 WP MM NOT_NAMED 1938-08-21 12:00:00 NR 21.6056 126.256 main 530 492 __________P___ -1 21.6056 126.256 7 7 271
1938232N22129 1938 39 WP MM NOT_NAMED 1938-08-21 15:00:00 NR 21.6077 125.883 main 492 453 __________P___ -1 21.6077 125.883 7 7 270
1938232N22129 1938 39 WP MM NOT_NAMED 1938-08-21 18:00:00 NR 21.6052 125.505 main 453 415 __________P___ -1 21.6052 125.505 7 7 269
1938232N22129 1938 39 WP MM NOT_NAMED 1938-08-21 21:00:00 NR 21.6011 125.126 main 415 406 __________P___ -1 21.6011 125.126 7 7 269
1938232N22129 1938 39 WP MM NOT_NAMED 1938-08-21 22:00:00 NR 21.6000 125.000 main 406 387 __________O___ -1 21.6000 125.000 7 7 270
1938232N22129 1938 39 WP MM NOT_NAMED 1938-08-22 00:00:00 NR 21.5998 124.753 main 387 351 __________P___ -1 21.5998 124.753 7 7 270
1938232N22129 1938 39 WP MM NOT_NAMED 1938-08-22 03:00:00 NR 21.5996 124.382 main 351 315 __________P___ -1 21.5996 124.382 7 7 270
1938232N22129 1938 39 WP MM NOT_NAMED 1938-08-22 06:00:00 NR 21.5996 124.008 main 315 280 __________P___ -1 21.5996 124.008 7 7 270
1938232N22129 1938 39 WP MM NOT_NAMED 1938-08-22 09:00:00 NR 21.5999 123.628 main 280 270 __________P___ -1 21.5999 123.628 7 7 270
1938232N22129 1938 39 WP MM NOT_NAMED 1938-08-22 10:00:00 NR 21.6000 123.500 main 270 239 __________O___ -1 21.6000 123.500 7 8 270
1938232N22129 1938 39 WP MM NOT_NAMED 1938-08-22 12:00:00 NR 21.6001 123.223 main 239 199 __________P___ -1 21.6001 123.223 7 8 270
1938232N22129 1938 39 WP MM NOT_NAMED 1938-08-22 15:00:00 NR 21.6003 122.802 main 199 158 __________P___ -1 21.6003 122.802 7 8 270
1938232N22129 1938 39 WP MM NOT_NAMED 1938-08-22 18:00:00 NR 21.6003 122.391 main 158 118 __________P___ -1 21.6003 122.391 7 7 270
1938232N22129 1938 39 WP MM NOT_NAMED 1938-08-22 21:00:00 NR 21.6001 122.014 main 118 108 __________P___ -1 21.6001 122.014 7 7 270
1938232N22129 1938 39 WP MM NOT_NAMED 1938-08-22 22:00:00 NR 21.6000 121.900 main 108 89 __________O___ -1 21.6000 121.900 7 6 269
1938232N22129 1938 39 WP MM NOT_NAMED 1938-08-23 00:00:00 NR 21.5970 121.702 main 89 61 __________P___ -1 21.5970 121.702 7 5 269
1938232N22129 1938 39 WP MM NOT_NAMED 1938-08-23 03:00:00 NR 21.5927 121.442 main 61 45 __________P___ -1 21.5927 121.442 7 5 269
1938232N22129 1938 39 WP MM NOT_NAMED 1938-08-23 06:00:00 NR 21.5915 121.209 main 45 35 __________P___ -1 21.5915 121.209 7 4 271
1938232N22129 1938 39 WP MM NOT_NAMED 1938-08-23 09:00:00 NR 21.5965 120.979 main 35 33 __________P___ -1 21.5965 120.979 7 4 272
1938232N22129 1938 39 WP MM NOT_NAMED 1938-08-23 10:00:00 NR 21.6000 120.900 main 33 33 __________O___ -1 21.6000 120.900 7 5 273
1938232N22129 1938 39 WP MM NOT_NAMED 1938-08-23 12:00:00 NR 21.6102 120.734 main 33 33 __________P___ -1 21.6102 120.734 7 5 275
1938232N22129 1938 39 WP MM NOT_NAMED 1938-08-23 15:00:00 NR 21.6320 120.467 main 39 39 __________P___ -1 21.6320 120.467 7 5 276
1938232N22129 1938 39 WP MM NOT_NAMED 1938-08-23 18:00:00 NR 21.6594 120.187 main 56 56 __________P___ -1 21.6594 120.187 7 5 276
1938232N22129 1938 39 WP MM NOT_NAMED 1938-08-23 21:00:00 NR 21.6897 119.897 main 85 85 __________P___ -1 21.6897 119.897 7 5 276
1938232N22129 1938 39 WP MM NOT_NAMED 1938-08-23 22:00:00 NR 21.7000 119.800 main 95 __________O___ -1 21.7000 119.800 7 5 277

Digital Typhoon Data and Search

About IBTrACS Database

This database is a web-friendly format of International Best Track Archive for Climate Stewardship (IBTrACS), a global best track data archive curated by NOAA dating back to 1842.

Updated: 2021-10-08